Time;durP1;ratioP1;P1;durP2;ratioP2;P2;SDS_P1;SDS_P2;PMS_P1;PMS_P2;Temp;Humidity;BMP_temperature;BMP_pressure;BME280_temperature;BME280_humidity;BME280_pressure;Samples;Min_cycle;Max_cycle;Signal;HPM_P1;HPM_P2
2023/08/25 00:01:11;;;;;;;9.68;7.30;;;;;;;32.19;34.30;96515.34;5085465;28;20024;-31
2023/08/25 00:03:37;;;;;;;8.55;7.68;;;;;;;32.24;34.17;96505.97;5081115;28;20376;-31
2023/08/25 00:06:02;;;;;;;9.38;8.40;;;;;;;32.11;34.13;96501.34;5079916;28;20024;-30
2023/08/25 00:08:28;;;;;;;11.32;7.75;;;;;;;32.18;34.15;96496.25;5079057;28;20032;-30
2023/08/25 00:10:53;;;;;;;10.32;7.63;;;;;;;32.07;33.98;96495.38;5082724;28;20574;-31
2023/08/25 00:13:20;;;;;;;8.73;7.85;;;;;;;31.93;34.25;96494.13;5091484;28;20073;-31
2023/08/25 00:15:46;;;;;;;8.55;7.07;;;;;;;31.99;34.07;96491.13;5087524;28;20027;-30
2023/08/25 00:18:11;;;;;;;7.65;6.90;;;;;;;32.15;33.93;96486.19;5087394;28;20465;-31
2023/08/25 00:20:37;;;;;;;10.10;7.78;;;;;;;32.05;34.06;96500.81;5083567;28;20028;-30
2023/08/25 00:23:03;;;;;;;8.20;7.18;;;;;;;32.15;33.81;96491.78;5089005;28;20023;-31
2023/08/25 00:25:30;;;;;;;9.43;7.78;;;;;;;32.11;33.81;96486.56;5086288;28;20024;-31
2023/08/25 00:27:55;;;;;;;8.55;7.57;;;;;;;32.09;34.24;96483.59;5080019;28;20055;-31
2023/08/25 00:30:20;;;;;;;10.07;7.65;;;;;;;31.95;34.84;96490.78;5088238;28;20066;-32
2023/08/25 00:32:46;;;;;;;9.38;7.70;;;;;;;32.04;34.28;96488.09;5083706;28;20111;-31
2023/08/25 00:35:11;;;;;;;9.27;7.20;;;;;;;31.92;34.11;96486.28;5083360;28;20025;-31
2023/08/25 00:37:37;;;;;;;11.82;7.70;;;;;;;32.04;33.73;96487.34;5083606;28;20070;-31
2023/08/25 00:40:02;;;;;;;8.32;7.25;;;;;;;32.11;33.89;96478.16;5083531;28;20059;-30
2023/08/25 00:42:28;;;;;;;8.32;7.45;;;;;;;32.12;33.61;96471.97;5083379;28;20489;-31
2023/08/25 00:44:53;;;;;;;10.63;7.65;;;;;;;32.09;33.54;96477.97;5083480;28;20550;-30
2023/08/25 00:47:20;;;;;;;9.10;7.88;;;;;;;32.22;33.85;96466.50;5076515;28;20545;-31
2023/08/25 00:49:48;;;;;;;8.05;7.22;;;;;;;32.17;33.47;96469.50;5083388;28;20385;-31
2023/08/25 00:52:15;;;;;;;10.52;7.60;;;;;;;32.24;33.69;96469.50;5086389;28;20020;-31
2023/08/25 00:54:41;;;;;;;8.35;7.55;;;;;;;32.12;33.34;96462.81;5086480;28;20373;-30
2023/08/25 00:57:07;;;;;;;8.95;7.80;;;;;;;32.10;33.69;96465.44;5076083;28;20029;-31
2023/08/25 00:59:34;;;;;;;9.02;7.82;;;;;;;31.77;33.62;96465.41;5083589;28;20369;-31
2023/08/25 01:02:00;;;;;;;8.95;8.02;;;;;;;31.97;33.54;96468.50;5083061;28;20020;-30
2023/08/25 01:04:25;;;;;;;8.93;7.10;;;;;;;31.93;33.98;96459.75;5082563;28;20065;-30
2023/08/25 01:06:50;;;;;;;7.53;6.82;;;;;;;32.05;33.01;96461.53;5080933;28;20020;-31
2023/08/25 01:09:16;;;;;;;7.65;6.70;;;;;;;32.22;32.30;96452.47;5084154;28;20024;-31
2023/08/25 01:12:01;;;;;;;7.50;6.78;;;;;;;32.19;32.17;96458.47;5079007;28;20027;-31
2023/08/25 01:14:50;;;;;;;7.78;6.97;;;;;;;32.12;32.53;96455.13;5085261;28;20048;-31
2023/08/25 01:17:15;;;;;;;10.15;7.20;;;;;;;32.04;32.48;96450.88;5086014;28;20028;-31
2023/08/25 01:19:53;;;;;;;7.50;6.80;;;;;;;32.00;32.62;96448.50;5078318;28;20389;-31
2023/08/25 01:22:52;;;;;;;9.35;6.97;;;;;;;32.09;32.47;96445.06;5086022;28;20032;-31
2023/08/25 01:25:25;;;;;;;8.00;6.75;;;;;;;32.14;32.27;96440.53;5082881;28;20099;-31
2023/08/25 01:27:51;;;;;;;8.32;6.95;;;;;;;32.12;32.10;96437.56;5082652;28;20487;-31
2023/08/25 01:30:17;;;;;;;10.82;7.68;;;;;;;32.15;32.26;96444.09;5081535;28;20024;-31
2023/08/25 01:32:43;;;;;;;8.18;7.20;;;;;;;31.96;32.65;96441.78;5077599;28;20077;-31
2023/08/25 01:35:14;;;;;;;10.75;7.45;;;;;;;32.23;32.08;96439.94;5088999;28;20016;-31
2023/08/25 01:37:45;;;;;;;8.82;7.28;;;;;;;32.19;32.07;96436.78;5082879;28;20034;-32
2023/08/25 01:40:18;;;;;;;8.30;7.40;;;;;;;31.88;32.88;96435.47;5082605;28;20033;-31
2023/08/25 01:42:47;;;;;;;7.75;6.97;;;;;;;31.93;32.55;96445.72;5082131;28;20024;-28
2023/08/25 01:45:14;;;;;;;7.00;6.28;;;;;;;31.76;32.91;96441.53;5082891;28;20078;-31
2023/08/25 01:47:40;;;;;;;7.55;6.90;;;;;;;32.01;32.25;96435.97;5082678;28;20474;-31
2023/08/25 01:50:09;;;;;;;7.65;6.72;;;;;;;31.99;32.11;96435.78;5082828;28;20107;-31
2023/08/25 01:52:34;;;;;;;8.70;7.00;;;;;;;32.00;32.38;96431.66;5087780;28;20020;-30
2023/08/25 01:55:01;;;;;;;10.77;6.68;;;;;;;31.98;32.11;96431.47;5084227;28;20106;-31
2023/08/25 01:57:27;;;;;;;8.88;6.82;;;;;;;31.95;32.11;96437.47;5082367;28;20111;-31
2023/08/25 01:59:53;;;;;;;9.82;7.28;;;;;;;31.82;32.00;96443.34;5081527;28;20020;-31
2023/08/25 02:02:18;;;;;;;7.40;6.65;;;;;;;31.99;31.84;96440.63;5075541;28;20025;-30
2023/08/25 02:04:44;;;;;;;10.23;6.53;;;;;;;32.18;31.44;96426.88;5082683;28;20054;-31
2023/08/25 02:07:10;;;;;;;6.80;6.20;;;;;;;32.05;31.05;96433.47;5081693;28;20056;-31
2023/08/25 02:09:35;;;;;;;8.40;7.20;;;;;;;32.04;31.24;96428.44;5084888;28;20052;-31
2023/08/25 02:12:01;;;;;;;7.38;6.40;;;;;;;32.10;31.05;96428.97;5086143;28;20474;-31
2023/08/25 02:14:26;;;;;;;7.75;6.78;;;;;;;31.91;31.43;96434.31;5081630;28;20030;-31
2023/08/25 02:16:52;;;;;;;7.22;6.38;;;;;;;32.14;31.09;96434.94;5081712;28;20526;-31
2023/08/25 02:19:17;;;;;;;7.82;6.40;;;;;;;31.91;31.14;96437.13;5082010;28;20024;-31
2023/08/25 02:21:44;;;;;;;7.05;6.35;;;;;;;32.03;30.93;96441.72;5077154;28;20019;-30
2023/08/25 02:24:10;;;;;;;6.82;6.13;;;;;;;32.16;30.75;96437.88;5079183;28;20028;-31
2023/08/25 02:26:35;;;;;;;9.07;6.68;;;;;;;32.11;30.57;96436.06;5081578;28;20095;-31
2023/08/25 02:29:00;;;;;;;8.73;6.25;;;;;;;31.97;31.10;96443.25;5081019;28;20031;-32
2023/08/25 02:31:26;;;;;;;7.47;6.68;;;;;;;32.07;31.17;96438.53;5081895;28;20023;-31
2023/08/25 02:33:51;;;;;;;7.43;6.20;;;;;;;31.97;30.88;96434.84;5081486;28;20024;-30
2023/08/25 02:36:17;;;;;;;7.55;6.43;;;;;;;31.74;31.44;96441.34;5086368;28;20411;-30
2023/08/25 02:38:42;;;;;;;8.65;6.00;;;;;;;31.82;31.58;96437.75;5083666;28;20469;-31
2023/08/25 02:41:07;;;;;;;8.15;6.72;;;;;;;31.89;31.60;96434.91;5081165;28;20123;-31
2023/08/25 02:43:33;;;;;;;7.20;6.50;;;;;;;31.85;31.28;96447.81;5080170;28;20016;-30
2023/08/25 02:46:01;;;;;;;6.75;6.00;;;;;;;31.81;30.97;96437.00;5082091;28;20028;-31
2023/08/25 02:48:27;;;;;;;7.45;6.18;;;;;;;31.86;30.92;96441.66;5079152;28;20028;-31
2023/08/25 02:50:52;;;;;;;7.22;6.35;;;;;;;31.89;30.84;96439.78;5075359;28;20024;-30
2023/08/25 02:53:18;;;;;;;11.55;7.45;;;;;;;31.86;31.13;96441.66;5088644;28;20073;-31
2023/08/25 02:55:43;;;;;;;7.53;6.80;;;;;;;31.94;31.23;96441.59;5080546;28;20374;-30
2023/08/25 02:58:08;;;;;;;7.75;6.75;;;;;;;31.79;31.99;96439.63;5088190;28;20047;-30
2023/08/25 03:00:34;;;;;;;8.60;6.35;;;;;;;31.83;31.89;96442.03;5072206;28;20547;-31
2023/08/25 03:02:59;;;;;;;8.00;7.20;;;;;;;31.78;31.77;96441.69;5080520;28;20027;-31
2023/08/25 03:05:25;;;;;;;8.05;7.25;;;;;;;31.53;32.71;96440.84;5080986;28;20039;-31
2023/08/25 03:07:52;;;;;;;8.52;7.07;;;;;;;31.83;32.22;96448.41;5073796;28;20020;-31
2023/08/25 03:10:17;;;;;;;7.80;7.00;;;;;;;31.82;31.86;96443.34;5080425;28;20025;-31
2023/08/25 03:12:42;;;;;;;8.70;7.60;;;;;;;31.77;32.48;96439.47;5080469;28;20477;-30
2023/08/25 03:15:08;;;;;;;7.78;7.00;;;;;;;31.82;32.11;96434.94;5080157;28;20127;-30
2023/08/25 03:17:34;;;;;;;7.45;6.75;;;;;;;31.77;32.74;96442.28;5073374;28;20516;-30
2023/08/25 03:20:00;;;;;;;8.75;6.95;;;;;;;31.85;32.42;96428.94;5080760;28;20091;-31
2023/08/25 03:22:25;;;;;;;7.97;6.90;;;;;;;31.73;32.35;96437.03;5080516;28;20024;-31
2023/08/25 03:24:51;;;;;;;8.05;7.35;;;;;;;31.81;32.31;96430.63;5084151;28;20020;-31
2023/08/25 03:27:16;;;;;;;7.95;6.80;;;;;;;31.77;32.74;96420.56;5083939;28;20020;-31
2023/08/25 03:29:42;;;;;;;10.93;7.75;;;;;;;31.68;32.35;96421.19;5087673;28;20028;-31
2023/08/25 03:32:08;;;;;;;10.68;7.38;;;;;;;31.75;32.35;96419.66;5077949;28;20030;-31
2023/08/25 03:34:33;;;;;;;7.95;6.78;;;;;;;31.73;32.85;96427.88;5076408;28;20078;-31
2023/08/25 03:36:59;;;;;;;9.60;7.30;;;;;;;31.71;32.42;96420.03;5083419;28;20013;-30
2023/08/25 03:39:26;;;;;;;8.32;7.03;;;;;;;31.87;32.42;96422.78;5083710;28;20451;-31
2023/08/25 03:41:51;;;;;;;8.40;7.10;;;;;;;31.73;32.46;96433.50;5081630;28;20031;-31
2023/08/25 03:44:17;;;;;;;8.80;7.43;;;;;;;31.72;32.17;96429.94;5080144;28;20017;-30
2023/08/25 03:46:42;;;;;;;9.45;7.32;;;;;;;31.74;32.85;96435.75;5080537;28;20442;-30
2023/08/25 03:49:09;;;;;;;8.35;7.55;;;;;;;31.74;32.27;96427.31;5080195;28;20157;-31
2023/08/25 03:51:35;;;;;;;9.15;6.72;;;;;;;31.56;32.55;96427.75;5080668;28;20028;-30
2023/08/25 03:54:00;;;;;;;10.75;7.43;;;;;;;31.46;32.57;96430.41;5080191;28;20020;-32
2023/08/25 03:56:27;;;;;;;7.25;6.40;;;;;;;31.60;32.21;96434.47;5080286;28;20048;-31
2023/08/25 03:58:52;;;;;;;7.75;6.35;;;;;;;31.62;31.55;96431.84;5079959;28;20024;-30
2023/08/25 04:01:18;;;;;;;7.65;6.10;;;;;;;31.70;31.53;96431.81;5080177;28;20024;-30
2023/08/25 04:03:43;;;;;;;6.85;5.93;;;;;;;31.69;31.06;96431.09;5077751;28;20020;-30
2023/08/25 04:06:09;;;;;;;7.30;6.30;;;;;;;31.42;31.02;96435.66;5075424;28;20029;-31
2023/08/25 04:08:34;;;;;;;9.93;6.63;;;;;;;31.69;31.62;96442.28;5088066;28;20025;-31
2023/08/25 04:11:00;;;;;;;7.32;6.63;;;;;;;31.85;31.50;96433.81;5086106;28;20020;-30
2023/08/25 04:13:25;;;;;;;10.23;6.60;;;;;;;31.76;31.29;96433.13;5075000;28;20024;-31
2023/08/25 04:15:56;;;;;;;8.80;6.60;;;;;;;31.75;31.25;96433.69;5079102;28;20052;-30
2023/08/25 04:18:21;;;;;;;8.57;7.10;;;;;;;31.76;31.67;96438.72;5079939;28;20020;-31
2023/08/25 04:20:47;;;;;;;6.72;6.03;;;;;;;31.69;31.56;96431.09;5082913;28;20041;-31
2023/08/25 04:23:12;;;;;;;9.43;6.65;;;;;;;31.78;31.57;96435.31;5077493;28;20024;-31
2023/08/25 04:25:38;;;;;;;9.60;7.15;;;;;;;31.78;32.12;96440.94;5073955;28;20016;-30
2023/08/25 04:28:04;;;;;;;9.23;7.03;;;;;;;31.66;32.33;96432.22;5083211;28;20069;-30
2023/08/25 04:30:29;;;;;;;14.65;7.72;;;;;;;31.65;32.71;96430.72;5082808;28;20021;-31
2023/08/25 04:32:55;;;;;;;10.15;7.40;;;;;;;31.67;32.58;96433.69;5080251;28;20070;-30
2023/08/25 04:35:20;;;;;;;10.30;7.28;;;;;;;31.57;32.53;96430.00;5073002;28;20477;-31
2023/08/25 04:37:50;;;;;;;8.65;7.63;;;;;;;31.62;32.83;96431.84;5080419;28;20020;-31
2023/08/25 04:40:16;;;;;;;10.60;7.50;;;;;;;31.61;32.74;96427.56;5079289;28;20169;-30
2023/08/25 04:42:42;;;;;;;8.93;7.50;;;;;;;31.44;33.20;96427.44;5086284;28;20023;-31
2023/08/25 04:45:09;;;;;;;8.98;6.95;;;;;;;31.30;33.77;96426.19;5083602;28;20016;-30
2023/08/25 04:47:35;;;;;;;8.43;7.45;;;;;;;31.53;32.98;96432.44;5084043;28;20501;-30
2023/08/25 04:50:03;;;;;;;8.50;7.38;;;;;;;31.59;32.81;96441.38;5083017;28;20039;-30
2023/08/25 04:52:33;;;;;;;8.30;7.50;;;;;;;31.48;33.22;96439.00;5080719;28;20046;-31
2023/08/25 04:54:59;;;;;;;10.02;7.55;;;;;;;31.43;33.11;96435.09;5078410;28;20474;-30
2023/08/25 04:57:24;;;;;;;7.95;7.25;;;;;;;31.47;33.37;96439.56;5083442;28;20035;-31
2023/08/25 04:59:49;;;;;;;8.68;7.45;;;;;;;31.48;33.40;96439.00;5083574;28;20047;-30
2023/08/25 05:02:17;;;;;;;10.63;7.40;;;;;;;31.55;33.23;96438.22;5083449;28;20025;-31
2023/08/25 05:04:42;;;;;;;9.45;7.75;;;;;;;31.42;33.31;96438.47;5083350;28;20016;-30
2023/08/25 05:07:08;;;;;;;10.45;7.25;;;;;;;31.48;33.13;96439.00;5082667;28;20081;-31
2023/08/25 05:09:33;;;;;;;8.48;7.63;;;;;;;31.53;33.51;96435.25;5083445;28;20021;-30
2023/08/25 05:11:59;;;;;;;9.30;7.60;;;;;;;31.53;32.72;96440.84;5081884;28;20081;-30
2023/08/25 05:14:24;;;;;;;8.77;7.88;;;;;;;31.58;33.03;96437.09;5085181;28;20056;-31
2023/08/25 05:16:50;;;;;;;8.18;7.35;;;;;;;31.66;33.07;96439.88;5089608;28;20028;-31
2023/08/25 05:19:15;;;;;;;11.10;7.60;;;;;;;31.55;32.74;96446.63;5083062;28;20028;-31
2023/08/25 05:21:40;;;;;;;8.10;7.30;;;;;;;31.75;32.64;96450.50;5077395;28;20534;-31
2023/08/25 05:24:22;;;;;;;8.05;7.28;;;;;;;31.66;32.73;96449.03;5094256;28;20513;-31
2023/08/25 05:26:51;;;;;;;8.57;7.13;;;;;;;31.57;33.53;96444.00;5083685;28;20016;-30
2023/08/25 05:29:18;;;;;;;8.95;7.60;;;;;;;31.82;33.15;96454.56;5083192;28;20500;-31
2023/08/25 05:31:43;;;;;;;8.75;7.22;;;;;;;31.62;33.30;96453.53;5090256;28;20031;-31
2023/08/25 05:34:09;;;;;;;10.13;7.75;;;;;;;31.63;33.14;96449.41;5082564;28;20036;-30
2023/08/25 05:36:34;;;;;;;8.07;7.03;;;;;;;31.38;33.72;96457.75;5082380;28;20028;-31
2023/08/25 05:39:01;;;;;;;8.70;7.38;;;;;;;31.59;33.80;96451.84;5075514;28;20098;-31
2023/08/25 05:41:27;;;;;;;9.00;6.97;;;;;;;31.44;33.41;96455.47;5081165;28;20475;-31
2023/08/25 05:43:52;;;;;;;9.52;7.90;;;;;;;31.50;33.46;96450.41;5077055;28;20469;-31
2023/08/25 05:46:18;;;;;;;8.80;7.38;;;;;;;31.60;33.34;96459.69;5085841;28;20051;-31
2023/08/25 05:48:43;;;;;;;8.13;7.43;;;;;;;31.69;33.17;96459.13;5085660;28;20016;-31
2023/08/25 05:51:08;;;;;;;7.93;6.95;;;;;;;31.52;32.94;96453.38;5081742;28;20063;-30
2023/08/25 05:53:35;;;;;;;7.75;6.90;;;;;;;31.50;33.11;96458.81;5074760;28;20184;-30
2023/08/25 05:56:01;;;;;;;12.98;7.50;;;;;;;31.44;33.02;96466.66;5082708;28;20016;-31
2023/08/25 05:58:26;;;;;;;10.15;6.93;;;;;;;31.72;32.31;96460.03;5077973;28;20475;-30
2023/08/25 06:00:51;;;;;;;8.82;7.00;;;;;;;31.59;33.08;96455.41;5085573;28;20028;-31
2023/08/25 06:03:18;;;;;;;11.52;7.70;;;;;;;31.70;32.62;96455.00;5076467;28;20480;-31
2023/08/25 06:05:46;;;;;;;8.45;7.38;;;;;;;31.58;33.22;96467.94;5080009;28;20420;-31
2023/08/25 06:08:12;;;;;;;11.50;6.95;;;;;;;31.43;33.18;96465.19;5081818;28;20020;-30
2023/08/25 06:10:37;;;;;;;8.35;7.55;;;;;;;31.38;33.25;96458.50;5074514;28;20024;-30
2023/08/25 06:13:03;;;;;;;10.10;8.05;;;;;;;31.70;32.80;96463.41;5082356;28;20466;-30
2023/08/25 06:15:29;;;;;;;8.27;7.53;;;;;;;31.53;33.46;96456.94;5081865;28;20103;-30
2023/08/25 06:17:54;;;;;;;9.98;7.75;;;;;;;31.66;33.12;96453.88;5081877;28;20231;-31
2023/08/25 06:20:21;;;;;;;15.75;7.72;;;;;;;31.63;32.74;96455.78;5081679;28;20031;-31
2023/08/25 06:22:46;;;;;;;7.80;7.00;;;;;;;31.76;33.05;96458.34;5084295;28;20028;-30
2023/08/25 06:25:12;;;;;;;9.80;7.22;;;;;;;31.81;32.77;96453.81;5084532;28;20012;-31
2023/08/25 06:27:38;;;;;;;13.30;7.40;;;;;;;31.72;32.69;96460.78;5082790;28;20466;-31
2023/08/25 06:30:04;;;;;;;8.00;7.20;;;;;;;31.53;33.66;96457.66;5081399;28;20105;-31
2023/08/25 06:32:29;;;;;;;8.63;7.50;;;;;;;31.94;32.61;96461.97;5081665;28;20032;-30
2023/08/25 06:34:55;;;;;;;8.82;7.35;;;;;;;31.69;33.18;96455.56;5089032;28;20031;-31
2023/08/25 06:37:20;;;;;;;8.10;7.10;;;;;;;31.81;33.20;96459.44;5079587;28;20085;-31
2023/08/25 06:39:47;;;;;;;9.15;6.63;;;;;;;31.97;33.14;96465.72;5075825;28;20055;-31
2023/08/25 06:42:13;;;;;;;13.98;7.35;;;;;;;31.97;33.46;96463.66;5080765;28;20430;-31
2023/08/25 06:44:40;;;;;;;11.90;7.07;;;;;;;31.94;33.74;96464.03;5081184;28;20055;-31
2023/08/25 06:47:06;;;;;;;11.45;7.53;;;;;;;32.04;33.63;96459.28;5081534;28;20051;-31
2023/08/25 06:49:31;;;;;;;9.95;7.22;;;;;;;31.88;34.05;96469.13;5079402;28;20043;-30
2023/08/25 06:51:56;;;;;;;9.73;7.20;;;;;;;31.83;34.08;96467.28;5082848;28;20434;-30
2023/08/25 06:54:24;;;;;;;9.20;7.50;;;;;;;31.81;33.89;96461.50;5084188;28;20027;-31
2023/08/25 06:56:50;;;;;;;10.23;6.78;;;;;;;31.81;34.14;96465.03;5084066;28;20020;-31
2023/08/25 06:59:16;;;;;;;8.70;6.40;;;;;;;31.98;33.53;96464.41;5075320;28;20029;-30
2023/08/25 07:01:41;;;;;;;9.85;7.40;;;;;;;31.96;33.61;96464.97;5078581;28;20065;-31
2023/08/25 07:04:07;;;;;;;11.90;7.20;;;;;;;31.94;33.40;96466.84;5081311;28;20027;-31
2023/08/25 07:06:32;;;;;;;7.90;7.10;;;;;;;31.96;33.66;96458.59;5080948;28;20111;-31
2023/08/25 07:08:57;;;;;;;14.60;7.43;;;;;;;31.95;34.23;96465.53;5079865;28;20169;-32
2023/08/25 07:11:26;;;;;;;12.80;7.50;;;;;;;31.97;33.81;96471.31;5074560;28;20097;-31
2023/08/25 07:13:51;;;;;;;8.98;7.50;;;;;;;31.85;34.03;96470.25;5080577;28;20103;-31
2023/08/25 07:16:17;;;;;;;10.13;6.88;;;;;;;31.91;34.00;96473.56;5072870;28;20166;-31
2023/08/25 07:18:43;;;;;;;11.95;7.45;;;;;;;31.90;33.71;96472.13;5084186;28;20024;-31
2023/08/25 07:21:09;;;;;;;9.43;7.38;;;;;;;32.09;33.84;96463.94;5078439;28;20028;-31
2023/08/25 07:23:35;;;;;;;11.80;7.25;;;;;;;32.10;33.70;96465.44;5080235;28;20396;-31
2023/08/25 07:26:00;;;;;;;8.65;7.72;;;;;;;31.96;33.98;96481.03;5080416;28;20029;-31
2023/08/25 07:28:26;;;;;;;7.82;7.03;;;;;;;32.13;33.81;96475.53;5087613;28;20028;-31
2023/08/25 07:30:51;;;;;;;10.45;7.18;;;;;;;32.16;33.82;96482.03;5081169;28;20026;-31
2023/08/25 07:33:17;;;;;;;10.93;6.97;;;;;;;32.27;33.31;96484.44;5080651;28;20097;-30
2023/08/25 07:35:43;;;;;;;9.70;6.78;;;;;;;32.18;33.64;96474.56;5081204;28;20021;-31
2023/08/25 07:38:10;;;;;;;8.57;7.25;;;;;;;32.23;33.43;96478.47;5083825;28;20028;-31
2023/08/25 07:40:37;;;;;;;8.93;6.53;;;;;;;32.11;33.77;96472.53;5083646;28;20016;-30
2023/08/25 07:43:03;;;;;;;10.77;7.30;;;;;;;32.21;33.81;96483.91;5082677;28;20028;-31
2023/08/25 07:45:30;;;;;;;12.45;7.43;;;;;;;32.32;33.40;96489.06;5085121;28;20095;-31
2023/08/25 07:47:58;;;;;;;8.27;6.88;;;;;;;32.45;33.33;96485.97;5081021;28;20032;-31
2023/08/25 07:50:24;;;;;;;11.45;7.07;;;;;;;32.41;33.70;96491.25;5079948;28;20024;-31
2023/08/25 07:52:50;;;;;;;9.18;6.70;;;;;;;32.37;33.12;96486.06;5087774;28;20047;-31
2023/08/25 07:55:16;;;;;;;10.60;6.80;;;;;;;32.45;33.12;96489.53;5080646;28;20052;-31
2023/08/25 07:57:42;;;;;;;10.30;7.32;;;;;;;32.46;33.33;96493.84;5085834;28;20498;-31
2023/08/25 08:00:12;;;;;;;10.32;7.57;;;;;;;32.29;33.83;96490.22;5082146;28;20031;-31
2023/08/25 08:02:37;;;;;;;12.20;7.50;;;;;;;32.33;33.63;96491.31;5084716;28;20020;-31
2023/08/25 08:05:03;;;;;;;12.43;7.20;;;;;;;32.36;34.04;96489.44;5083520;28;20409;-31
2023/08/25 08:07:29;;;;;;;11.25;7.60;;;;;;;32.36;33.65;96484.56;5083734;28;20023;-31
2023/08/25 08:09:54;;;;;;;10.07;6.78;;;;;;;32.56;33.38;96491.13;5083453;28;20593;-31
2023/08/25 08:12:20;;;;;;;8.20;7.40;;;;;;;32.63;33.49;96495.97;5082231;28;20108;-31
2023/08/25 08:14:45;;;;;;;12.25;7.55;;;;;;;32.42;33.97;96487.88;5086995;28;20059;-31
2023/08/25 08:17:11;;;;;;;8.60;7.15;;;;;;;32.43;33.56;96494.97;5078758;28;20028;-31
2023/08/25 08:19:37;;;;;;;10.35;6.50;;;;;;;32.56;33.51;96493.19;5083517;28;20393;-30
2023/08/25 08:22:03;;;;;;;11.55;6.90;;;;;;;32.48;33.40;96496.81;5083641;28;20027;-31
2023/08/25 08:24:29;;;;;;;8.73;6.32;;;;;;;32.60;33.16;96501.97;5076726;28;20024;-31
2023/08/25 08:26:54;;;;;;;8.23;6.03;;;;;;;32.51;33.28;96497.00;5090913;28;20020;-31
2023/08/25 08:29:20;;;;;;;7.53;5.70;;;;;;;32.50;33.03;96487.09;5084162;28;20024;-31
2023/08/25 08:31:46;;;;;;;7.18;6.15;;;;;;;32.51;32.75;96494.94;5076373;28;20470;-31
2023/08/25 08:34:11;;;;;;;6.60;5.90;;;;;;;32.55;32.50;96488.91;5092784;28;20032;-31
2023/08/25 08:36:37;;;;;;;8.43;5.63;;;;;;;32.51;32.76;96488.56;5079350;28;20020;-31
2023/08/25 08:39:04;;;;;;;7.57;5.53;;;;;;;32.57;32.37;96486.25;5083706;28;20048;-31
2023/08/25 08:41:29;;;;;;;5.43;4.93;;;;;;;32.54;31.92;96493.03;5089701;28;20535;-31
2023/08/25 08:43:59;;;;;;;6.72;5.60;;;;;;;32.64;32.02;96491.09;5078182;28;20032;-30
2023/08/25 08:46:27;;;;;;;5.70;5.10;;;;;;;32.67;31.70;96492.72;5087051;28;20461;-31
2023/08/25 08:48:54;;;;;;;7.97;4.97;;;;;;;32.56;31.75;96479.16;5085533;28;20027;-31
2023/08/25 08:51:21;;;;;;;5.93;5.32;;;;;;;32.59;31.70;96483.63;5083034;28;20500;-31
2023/08/25 08:53:50;;;;;;;5.95;4.80;;;;;;;32.66;31.57;96489.19;5083285;28;20031;-31
2023/08/25 08:56:17;;;;;;;5.75;4.90;;;;;;;32.66;30.96;96491.25;5078737;28;20477;-31
2023/08/25 08:58:43;;;;;;;5.15;4.65;;;;;;;32.67;30.86;96495.53;5087964;28;20024;-31
2023/08/25 09:01:10;;;;;;;7.72;4.57;;;;;;;32.66;30.97;96497.59;5083539;28;20027;-31
2023/08/25 09:03:39;;;;;;;5.25;4.22;;;;;;;32.60;30.59;96493.53;5086731;28;20024;-31
2023/08/25 09:06:05;;;;;;;6.90;4.80;;;;;;;32.66;30.53;96496.84;5078503;28;20024;-31
2023/08/25 09:08:31;;;;;;;7.43;4.60;;;;;;;32.71;30.34;96490.28;5083487;28;20019;-31
2023/08/25 09:11:03;;;;;;;7.68;4.95;;;;;;;32.66;30.26;96489.19;5088893;28;20388;-31
2023/08/25 09:13:34;;;;;;;5.10;4.60;;;;;;;32.67;30.06;96487.13;5078220;28;20020;-31
2023/08/25 09:16:09;;;;;;;6.15;4.22;;;;;;;32.75;29.93;96491.41;5080549;28;20036;-31
2023/08/25 09:18:36;;;;;;;4.40;3.80;;;;;;;32.73;29.45;96484.84;5084635;28;20048;-31
2023/08/25 09:21:05;;;;;;;4.28;3.70;;;;;;;32.86;29.57;96489.44;5080883;28;20039;-31
2023/08/25 09:23:31;;;;;;;5.70;3.92;;;;;;;32.73;29.44;96479.97;5075987;28;20077;-31
2023/08/25 09:26:03;;;;;;;5.30;3.53;;;;;;;32.72;28.70;96484.13;5085389;28;20024;-31
2023/08/25 09:28:29;;;;;;;7.72;4.10;;;;;;;32.72;28.48;96483.38;5078399;28;20032;-31
2023/08/25 09:30:54;;;;;;;6.03;3.63;;;;;;;32.78;28.61;96478.25;5085548;28;20511;-31
2023/08/25 09:33:20;;;;;;;5.68;3.70;;;;;;;32.79;29.04;96474.13;5086160;28;20020;-32
2023/08/25 09:35:46;;;;;;;6.78;3.90;;;;;;;32.86;29.15;96478.19;5084426;28;20453;-30
2023/08/25 09:38:30;;;;;;;4.50;4.10;;;;;;;32.76;29.17;96476.00;5081247;28;20020;-31
2023/08/25 09:40:58;;;;;;;6.13;3.88;;;;;;;32.76;29.28;96476.00;5074192;28;20470;-31
2023/08/25 09:43:31;;;;;;;11.35;4.60;;;;;;;32.82;29.48;96470.91;5082418;28;20476;-31
2023/08/25 09:45:57;;;;;;;5.32;4.00;;;;;;;32.81;29.52;96477.84;5082719;28;20016;-30
2023/08/25 09:48:26;;;;;;;7.20;4.28;;;;;;;32.90;29.74;96472.88;5079245;28;20020;-31
2023/08/25 09:50:52;;;;;;;6.07;4.68;;;;;;;32.93;30.08;96469.69;5085094;28;20016;-31
2023/08/25 09:53:19;;;;;;;6.85;4.70;;;;;;;32.90;30.38;96472.88;5077927;28;20095;-31
2023/08/25 09:55:46;;;;;;;8.45;4.72;;;;;;;32.93;30.32;96464.06;5085488;28;20024;-31
2023/08/25 09:58:14;;;;;;;7.32;4.82;;;;;;;32.92;30.42;96464.63;5077467;28;20025;-31
2023/08/25 10:00:40;;;;;;;7.30;4.68;;;;;;;32.97;30.43;96458.78;5080880;28;20020;-31
2023/08/25 10:03:10;;;;;;;5.25;4.57;;;;;;;32.97;30.61;96455.97;5089360;28;20112;-31
2023/08/25 10:05:38;;;;;;;5.38;4.60;;;;;;;33.06;29.99;96457.38;5082309;28;20397;-31
2023/08/25 10:08:06;;;;;;;6.43;4.50;;;;;;;32.99;30.58;96450.53;5081713;28;20107;-31
2023/08/25 10:10:35;;;;;;;6.78;4.57;;;;;;;32.98;30.43;96457.47;5083042;28;20103;-31
2023/08/25 10:13:07;;;;;;;9.15;4.50;;;;;;;33.06;30.44;96451.75;5087911;28;20038;-31
2023/08/25 10:15:33;;;;;;;7.72;5.32;;;;;;;33.11;30.79;96462.75;5084198;28;20107;-32
2023/08/25 10:18:07;;;;;;;7.53;4.82;;;;;;;33.08;31.01;96460.34;5085298;28;20024;-31
2023/08/25 10:20:35;;;;;;;5.97;4.80;;;;;;;32.99;31.11;96456.16;5084109;28;20453;-31
2023/08/25 10:23:05;;;;;;;6.10;5.25;;;;;;;33.02;31.30;96452.16;5080149;28;20055;-31
2023/08/25 10:25:32;;;;;;;16.10;5.90;;;;;;;33.09;31.40;96456.22;5081398;28;20104;-31
2023/08/25 10:28:00;;;;;;;6.57;5.47;;;;;;;33.14;31.29;96458.03;5084616;28;20055;-31
2023/08/25 10:30:27;;;;;;;6.95;5.15;;;;;;;33.14;31.43;96458.78;5078621;28;20028;-31
2023/08/25 10:33:09;;;;;;;7.55;5.43;;;;;;;33.14;31.30;96453.16;5081654;28;20103;-31
2023/08/25 10:35:48;;;;;;;6.43;5.65;;;;;;;33.18;31.38;96450.69;5081157;28;20539;-31
2023/08/25 10:38:22;;;;;;;7.35;6.00;;;;;;;33.13;31.60;96450.94;5085855;28;20035;-31
2023/08/25 10:40:57;;;;;;;10.27;5.47;;;;;;;33.14;31.66;96441.91;5083577;28;20037;-31
2023/08/25 10:43:31;;;;;;;9.57;6.13;;;;;;;33.25;31.48;96445.59;5079683;28;20028;-31
2023/08/25 10:46:00;;;;;;;7.18;5.40;;;;;;;33.21;31.69;96440.34;5081434;28;20024;-31
2023/08/25 10:48:26;;;;;;;9.73;5.97;;;;;;;33.25;31.67;96437.16;5078361;28;20027;-31
2023/08/25 10:50:52;;;;;;;9.93;5.63;;;;;;;33.25;31.55;96445.59;5083477;28;20055;-32
2023/08/25 10:53:44;;;;;;;10.23;6.05;;;;;;;33.21;31.35;96440.34;5076812;28;20028;-30
2023/08/25 10:56:14;;;;;;;5.97;5.38;;;;;;;33.28;31.03;96438.81;5081548;28;20134;-31
2023/08/25 10:58:40;;;;;;;7.97;5.32;;;;;;;33.27;31.11;96440.88;5078706;28;20540;-31
2023/08/25 11:01:05;;;;;;;14.02;5.45;;;;;;;33.33;30.78;96441.38;5082697;28;20031;-31
2023/08/25 11:03:48;;;;;;;9.85;4.82;;;;;;;33.32;30.50;96445.50;5076987;28;20488;-31
2023/08/25 11:06:49;;;;;;;6.57;4.50;;;;;;;33.36;29.76;96434.59;5083019;28;20020;-31
2023/08/25 11:09:18;;;;;;;6.20;4.70;;;;;;;33.37;30.16;96443.78;5068125;28;20055;-31
2023/08/25 11:11:45;;;;;;;6.95;4.80;;;;;;;33.40;30.06;96442.59;5070173;28;20122;-31
2023/08/25 11:14:13;;;;;;;7.43;5.05;;;;;;;33.45;29.97;96436.72;5070201;28;20024;-31
2023/08/25 11:16:40;;;;;;;6.60;4.70;;;;;;;33.36;29.74;96442.28;5069958;28;20048;-31
2023/08/25 11:19:14;;;;;;;7.75;4.78;;;;;;;33.44;29.49;96435.25;5070344;28;20119;-31
2023/08/25 11:21:40;;;;;;;16.08;4.55;;;;;;;33.43;29.53;96433.00;5070039;28;20154;-30
2023/08/25 11:24:06;;;;;;;7.88;4.70;;;;;;;33.46;29.22;96426.97;5070331;28;20036;-31
2023/08/25 11:26:34;;;;;;;7.00;4.72;;;;;;;33.44;28.86;96435.25;5069773;28;20025;-31
2023/08/25 11:29:04;;;;;;;5.20;4.70;;;;;;;33.42;28.73;96434.31;5070631;28;20497;-31
2023/08/25 11:31:30;;;;;;;7.45;4.85;;;;;;;33.41;28.80;96424.41;5069886;28;20493;-31